Time;durP1;ratioP1;P1;durP2;ratioP2;P2;SDS_P1;SDS_P2;PMS_P1;PMS_P2;Temp;Humidity;BMP_temperature;BMP_pressure;BME280_temperature;BME280_humidity;BME280_pressure;Samples;Min_cycle;Max_cycle;Signal;HPM_P1;HPM_P2
2024/02/23 00:01:39;;;;;;;25.67;24.52;;;;;;;;;;4181295;28;20090;-48
2024/02/23 00:03:41;;;;;;;26.60;25.80;;;;;;;;;;4181180;28;20045;-51
2024/02/23 00:05:42;;;;;;;27.50;26.15;;;;;;;;;;4181224;28;20041;-53
2024/02/23 00:07:44;;;;;;;28.00;27.07;;;;;;;;;;4181133;28;20095;-51
2024/02/23 00:09:46;;;;;;;24.65;23.65;;;;;;;;;;4163440;28;20284;-49
2024/02/23 00:11:49;;;;;;;27.33;26.23;;;;;;;;;;4181127;28;20033;-50
2024/02/23 00:13:51;;;;;;;27.70;26.30;;;;;;;;;;4163263;28;20353;-53
2024/02/23 00:15:52;;;;;;;24.93;23.73;;;;;;;;;;4163249;28;20048;-50
2024/02/23 00:17:54;;;;;;;27.80;26.87;;;;;;;;;;4181065;28;20496;-49
2024/02/23 00:19:56;;;;;;;28.70;27.40;;;;;;;;;;4181104;28;20037;-47
2024/02/23 00:21:59;;;;;;;27.60;26.52;;;;;;;;;;4181232;28;20033;-49
2024/02/23 00:24:01;;;;;;;27.63;26.52;;;;;;;;;;4180908;28;20440;-49
2024/02/23 00:26:03;;;;;;;27.30;26.27;;;;;;;;;;4181170;28;20103;-53
2024/02/23 00:28:05;;;;;;;25.92;24.92;;;;;;;;;;4180920;28;20131;-53
2024/02/23 00:30:07;;;;;;;26.08;24.80;;;;;;;;;;4180852;28;20041;-53
2024/02/23 00:32:08;;;;;;;27.63;26.20;;;;;;;;;;4180853;28;20048;-52
2024/02/23 00:34:11;;;;;;;28.02;27.08;;;;;;;;;;4180458;28;20052;-52
2024/02/23 00:36:12;;;;;;;27.02;26.15;;;;;;;;;;4180670;28;20505;-52
2024/02/23 00:38:14;;;;;;;27.83;26.83;;;;;;;;;;4181100;28;20041;-53
2024/02/23 00:40:16;;;;;;;27.83;26.70;;;;;;;;;;4180779;28;20041;-52
2024/02/23 00:42:17;;;;;;;25.27;24.50;;;;;;;;;;4180795;28;20083;-51
2024/02/23 00:44:19;;;;;;;27.67;26.47;;;;;;;;;;4180500;28;20040;-53
2024/02/23 00:46:20;;;;;;;26.20;24.77;;;;;;;;;;4186215;28;20360;-52
2024/02/23 00:48:22;;;;;;;27.70;26.67;;;;;;;;;;4214143;28;20464;-51
2024/02/23 00:50:26;;;;;;;27.38;25.83;;;;;;;;;;4213996;28;20040;-53
2024/02/23 00:52:27;;;;;;;24.45;23.73;;;;;;;;;;4213857;28;20089;-52
2024/02/23 00:54:29;;;;;;;25.40;24.70;;;;;;;;;;4214009;28;20407;-53
2024/02/23 00:56:31;;;;;;;25.63;24.83;;;;;;;;;;4180896;28;20547;-52
2024/02/23 00:58:45;;;;;;;25.23;24.15;;;;;;;;;;4180579;28;20048;-52
2024/02/23 01:00:47;;;;;;;26.10;25.23;;;;;;;;;;4180543;28;20053;-53
2024/02/23 01:02:49;;;;;;;26.17;25.10;;;;;;;;;;4180482;28;20049;-53
2024/02/23 01:04:50;;;;;;;23.50;22.50;;;;;;;;;;4180294;28;20287;-51
2024/02/23 01:06:52;;;;;;;27.25;26.25;;;;;;;;;;4190729;28;20040;-52
2024/02/23 01:08:54;;;;;;;26.35;25.20;;;;;;;;;;4180412;28;20099;-51
2024/02/23 01:10:55;;;;;;;27.33;26.48;;;;;;;;;;4180529;28;20037;-49
2024/02/23 01:12:57;;;;;;;26.10;24.95;;;;;;;;;;4180509;28;20413;-51
2024/02/23 01:14:59;;;;;;;25.10;24.50;;;;;;;;;;4180428;28;20424;-53
2024/02/23 01:17:05;;;;;;;26.08;24.92;;;;;;;;;;4180406;28;20439;-51
2024/02/23 01:19:07;;;;;;;27.03;25.57;;;;;;;;;;4180428;28;20409;-49
2024/02/23 01:21:09;;;;;;;25.63;24.83;;;;;;;;;;4180410;28;20287;-51
2024/02/23 01:23:10;;;;;;;26.30;25.52;;;;;;;;;;4180743;28;20041;-52
2024/02/23 01:25:14;;;;;;;26.70;25.52;;;;;;;;;;4180448;28;20098;-52
2024/02/23 01:27:16;;;;;;;27.13;26.08;;;;;;;;;;4180701;28;20048;-51
2024/02/23 01:29:18;;;;;;;26.77;25.70;;;;;;;;;;4180602;28;20052;-52
2024/02/23 01:31:19;;;;;;;26.83;25.83;;;;;;;;;;4162769;28;20490;-53
2024/02/23 01:33:21;;;;;;;28.13;27.03;;;;;;;;;;4180439;28;20128;-53
2024/02/23 01:35:23;;;;;;;25.93;24.93;;;;;;;;;;4180610;28;20052;-53
2024/02/23 01:37:24;;;;;;;26.67;25.67;;;;;;;;;;4180306;28;20287;-51
2024/02/23 01:39:26;;;;;;;27.40;26.33;;;;;;;;;;4180289;28;20493;-50
2024/02/23 01:41:28;;;;;;;26.98;26.17;;;;;;;;;;4184788;28;20158;-53
2024/02/23 01:43:30;;;;;;;25.52;24.48;;;;;;;;;;4213528;28;20064;-53
2024/02/23 01:45:32;;;;;;;26.17;25.20;;;;;;;;;;4214898;28;20086;-49
2024/02/23 01:47:33;;;;;;;24.35;23.35;;;;;;;;;;4217039;28;20048;-52
2024/02/23 01:49:35;;;;;;;25.85;24.73;;;;;;;;;;4216696;28;20044;-49
2024/02/23 01:51:37;;;;;;;23.20;22.77;;;;;;;;;;4216921;28;20048;-49
2024/02/23 01:53:39;;;;;;;23.30;22.40;;;;;;;;;;4216555;28;20040;-51
2024/02/23 01:55:41;;;;;;;24.70;24.20;;;;;;;;;;4216458;28;20067;-50
2024/02/23 01:57:43;;;;;;;;;;;;;;;;;;4216060;28;20093;-52
2024/02/23 01:59:50;;;;;;;26.70;25.73;;;;;;;;;;4216816;28;19965;-52
2024/02/23 02:01:52;;;;;;;24.08;22.70;;;;;;;;;;4216531;28;20040;-50
2024/02/23 02:03:56;;;;;;;25.53;24.40;;;;;;;;;;4200729;28;20081;-51
2024/02/23 02:06:01;;;;;;;24.77;23.95;;;;;;;;;;4183143;28;20283;-51
2024/02/23 02:08:02;;;;;;;25.83;24.90;;;;;;;;;;4183257;28;20052;-50
2024/02/23 02:10:06;;;;;;;25.17;24.40;;;;;;;;;;4183085;28;20049;-52
2024/02/23 02:12:08;;;;;;;23.67;22.83;;;;;;;;;;4183015;28;20451;-51
2024/02/23 02:14:10;;;;;;;26.95;25.42;;;;;;;;;;4182971;28;20041;-51
2024/02/23 02:16:12;;;;;;;26.73;25.73;;;;;;;;;;4183277;28;20455;-51
2024/02/23 02:18:13;;;;;;;23.77;23.08;;;;;;;;;;4183096;28;20447;-49
2024/02/23 02:20:18;;;;;;;23.97;23.13;;;;;;;;;;4183031;28;20404;-52
2024/02/23 02:22:20;;;;;;;25.55;24.80;;;;;;;;;;4183182;28;20301;-52
2024/02/23 02:24:21;;;;;;;26.73;25.20;;;;;;;;;;4197138;28;20086;-49
2024/02/23 02:26:23;;;;;;;26.20;25.43;;;;;;;;;;4199351;28;20053;-48
2024/02/23 02:28:25;;;;;;;25.00;24.27;;;;;;;;;;4198327;28;20064;-52
2024/02/23 02:30:27;;;;;;;27.58;26.80;;;;;;;;;;4199043;28;20041;-51
2024/02/23 02:32:29;;;;;;;23.40;22.30;;;;;;;;;;4199245;28;20038;-51
2024/02/23 02:34:37;;;;;;;26.95;25.38;;;;;;;;;;4199019;28;20060;-52
2024/02/23 02:36:38;;;;;;;27.37;26.10;;;;;;;;;;4199330;28;20036;-51
2024/02/23 02:38:40;;;;;;;28.55;27.55;;;;;;;;;;4191583;28;20048;-51
2024/02/23 02:40:42;;;;;;;25.60;24.53;;;;;;;;;;4215769;28;20454;-51
2024/02/23 02:42:44;;;;;;;27.92;26.60;;;;;;;;;;4197914;28;20044;-49
2024/02/23 02:44:45;;;;;;;26.60;25.67;;;;;;;;;;4205816;28;20040;-49
2024/02/23 02:46:47;;;;;;;27.13;26.33;;;;;;;;;;4190300;28;20043;-53
2024/02/23 02:48:49;;;;;;;24.88;24.13;;;;;;;;;;4198940;28;20068;-50
2024/02/23 02:50:51;;;;;;;26.90;25.70;;;;;;;;;;4198924;28;20040;-48
2024/02/23 02:52:55;;;;;;;27.17;26.42;;;;;;;;;;4199147;28;20041;-52
2024/02/23 02:54:56;;;;;;;26.00;25.03;;;;;;;;;;4198832;28;20040;-48
2024/02/23 02:56:58;;;;;;;28.17;27.20;;;;;;;;;;4198188;28;20409;-48
2024/02/23 02:58:59;;;;;;;25.40;24.45;;;;;;;;;;4198922;28;20573;-52
2024/02/23 03:01:01;;;;;;;25.52;24.45;;;;;;;;;;4183904;28;20056;-53
2024/02/23 03:03:03;;;;;;;26.83;26.20;;;;;;;;;;4182068;28;20041;-52
2024/02/23 03:05:05;;;;;;;27.33;26.03;;;;;;;;;;4182196;28;20463;-52
2024/02/23 03:07:06;;;;;;;22.35;21.52;;;;;;;;;;4182482;28;20052;-50
2024/02/23 03:09:08;;;;;;;25.17;23.95;;;;;;;;;;4182668;28;20087;-50
2024/02/23 03:11:09;;;;;;;23.38;22.67;;;;;;;;;;4182080;28;20037;-48
2024/02/23 03:13:11;;;;;;;24.90;24.17;;;;;;;;;;4182078;28;20500;-51
2024/02/23 03:15:13;;;;;;;25.42;24.33;;;;;;;;;;4182111;28;20562;-53
2024/02/23 03:17:15;;;;;;;26.50;25.10;;;;;;;;;;4181955;28;20115;-50
2024/02/23 03:19:19;;;;;;;26.27;25.60;;;;;;;;;;4182189;28;20492;-52
2024/02/23 03:21:21;;;;;;;26.20;24.52;;;;;;;;;;4182375;28;20041;-51
2024/02/23 03:23:23;;;;;;;26.15;25.27;;;;;;;;;;4181911;28;20044;-50
2024/02/23 03:25:24;;;;;;;25.67;24.23;;;;;;;;;;4183813;28;20547;-49
2024/02/23 03:27:29;;;;;;;25.50;24.35;;;;;;;;;;4198627;28;20044;-52
2024/02/23 03:29:31;;;;;;;27.02;26.00;;;;;;;;;;4198419;28;20048;-50
2024/02/23 03:31:33;;;;;;;;;;;;;;;;;;4197165;28;20047;-49
2024/02/23 03:33:35;;;;;;;25.98;24.60;;;;;;;;;;4198184;28;19932;-49
2024/02/23 03:35:36;;;;;;;26.63;25.75;;;;;;;;;;4214029;28;20070;-50
2024/02/23 03:37:38;;;;;;;26.75;25.63;;;;;;;;;;4214823;28;20484;-48
2024/02/23 03:39:40;;;;;;;26.13;25.13;;;;;;;;;;4215127;28;20050;-51
2024/02/23 03:41:41;;;;;;;24.40;23.63;;;;;;;;;;4202907;28;20768;-49
2024/02/23 03:43:43;;;;;;;28.20;26.73;;;;;;;;;;4198079;28;20052;-51
2024/02/23 03:45:45;;;;;;;24.57;24.07;;;;;;;;;;4197759;28;20412;-52
2024/02/23 03:47:46;;;;;;;26.23;25.27;;;;;;;;;;4197297;28;20554;-50
2024/02/23 03:49:48;;;;;;;26.35;25.48;;;;;;;;;;4198020;28;20042;-52
2024/02/23 03:51:50;;;;;;;28.53;27.17;;;;;;;;;;4198092;28;20076;-52
2024/02/23 03:53:51;;;;;;;27.00;25.77;;;;;;;;;;4198191;28;20094;-51
2024/02/23 03:55:53;;;;;;;28.67;27.63;;;;;;;;;;4194563;28;20090;-53
2024/02/23 03:57:55;;;;;;;27.90;26.83;;;;;;;;;;4181413;28;20045;-53
2024/02/23 03:59:57;;;;;;;27.90;26.58;;;;;;;;;;4181283;28;20099;-54
2024/02/23 04:01:58;;;;;;;27.80;26.80;;;;;;;;;;4181308;28;20041;-53
2024/02/23 04:04:00;;;;;;;26.83;26.17;;;;;;;;;;4181197;28;20049;-53
2024/02/23 04:06:02;;;;;;;22.37;21.27;;;;;;;;;;4181281;28;20091;-52
2024/02/23 04:08:03;;;;;;;25.03;24.30;;;;;;;;;;4181094;28;20049;-52
2024/02/23 04:10:07;;;;;;;22.92;21.95;;;;;;;;;;4180525;28;20288;-53
2024/02/23 04:12:08;;;;;;;27.90;25.92;;;;;;;;;;4181203;28;20128;-51
2024/02/23 04:14:10;;;;;;;26.10;25.30;;;;;;;;;;4181130;28;20040;-54
2024/02/23 04:16:12;;;;;;;25.53;24.57;;;;;;;;;;4181354;28;20044;-52
2024/02/23 04:18:14;;;;;;;30.50;28.85;;;;;;;;;;4163326;28;20311;-54
2024/02/23 04:20:15;;;;;;;27.85;26.83;;;;;;;;;;4181118;28;20045;-53
2024/02/23 04:22:17;;;;;;;25.00;24.40;;;;;;;;;;4163446;28;20053;-53
2024/02/23 04:24:19;;;;;;;28.07;27.13;;;;;;;;;;4180912;28;20048;-53
2024/02/23 04:26:21;;;;;;;26.70;25.65;;;;;;;;;;4181420;28;20287;-53
2024/02/23 04:28:22;;;;;;;29.08;27.70;;;;;;;;;;4180960;28;20492;-54
2024/02/23 04:30:24;;;;;;;27.27;25.97;;;;;;;;;;4188876;28;20040;-54
2024/02/23 04:32:26;;;;;;;26.95;25.48;;;;;;;;;;4214176;28;21145;-53
2024/02/23 04:34:28;;;;;;;27.00;25.83;;;;;;;;;;4214147;28;20131;-54
2024/02/23 04:36:29;;;;;;;27.92;26.90;;;;;;;;;;4214071;28;20051;-53
2024/02/23 04:38:31;;;;;;;28.07;26.90;;;;;;;;;;4214559;28;20043;-53
2024/02/23 04:40:33;;;;;;;27.95;26.75;;;;;;;;;;4214130;28;20040;-52
2024/02/23 04:42:35;;;;;;;27.33;26.43;;;;;;;;;;4214245;28;20081;-53
2024/02/23 04:44:36;;;;;;;27.92;26.92;;;;;;;;;;4214086;28;20085;-53
2024/02/23 04:46:38;;;;;;;27.65;26.38;;;;;;;;;;4214059;28;20040;-51
2024/02/23 04:48:39;;;;;;;27.57;26.70;;;;;;;;;;4214047;28;20074;-53
2024/02/23 04:50:41;;;;;;;25.67;24.75;;;;;;;;;;4214173;28;20036;-53
2024/02/23 04:52:43;;;;;;;27.83;26.80;;;;;;;;;;4198388;28;20037;-53
2024/02/23 04:54:44;;;;;;;27.60;26.67;;;;;;;;;;4179654;28;20314;-54
2024/02/23 04:56:47;;;;;;;28.33;27.13;;;;;;;;;;4197171;28;20044;-53
2024/02/23 04:58:49;;;;;;;29.08;27.83;;;;;;;;;;4197083;28;20067;-53
2024/02/23 05:00:51;;;;;;;29.75;28.42;;;;;;;;;;4197064;28;20043;-53
2024/02/23 05:02:53;;;;;;;27.10;26.20;;;;;;;;;;4197253;28;20044;-53
2024/02/23 05:04:54;;;;;;;26.77;25.97;;;;;;;;;;4196888;28;20373;-53
2024/02/23 05:06:56;;;;;;;27.63;26.57;;;;;;;;;;4197135;28;20098;-52
2024/02/23 05:08:58;;;;;;;28.02;26.95;;;;;;;;;;4192788;28;20706;-54
2024/02/23 05:10:59;;;;;;;28.88;27.67;;;;;;;;;;4180531;28;20041;-53
2024/02/23 05:13:01;;;;;;;29.17;28.10;;;;;;;;;;4188927;28;20128;-53
2024/02/23 05:15:03;;;;;;;30.65;29.45;;;;;;;;;;4180075;28;20428;-53
2024/02/23 05:17:04;;;;;;;27.60;26.00;;;;;;;;;;4180228;28;20036;-53
2024/02/23 05:19:06;;;;;;;27.40;26.27;;;;;;;;;;4180462;28;20071;-52
2024/02/23 05:21:09;;;;;;;30.80;29.40;;;;;;;;;;4182629;28;20279;-53
2024/02/23 05:23:11;;;;;;;28.23;27.23;;;;;;;;;;4183995;28;20071;-51
2024/02/23 05:25:13;;;;;;;32.85;30.98;;;;;;;;;;4183961;28;20037;-53
2024/02/23 05:27:14;;;;;;;27.63;26.50;;;;;;;;;;4201134;28;20139;-54
2024/02/23 05:29:18;;;;;;;29.40;28.25;;;;;;;;;;4217249;28;20695;-53
2024/02/23 05:31:19;;;;;;;28.55;27.25;;;;;;;;;;4217075;28;20067;-53
2024/02/23 05:33:21;;;;;;;29.10;27.97;;;;;;;;;;4217027;28;20067;-53
2024/02/23 05:35:23;;;;;;;27.38;26.33;;;;;;;;;;4200069;28;20322;-53
2024/02/23 05:37:26;;;;;;;29.53;28.17;;;;;;;;;;4191220;28;20045;-53
2024/02/23 05:39:29;;;;;;;31.55;30.23;;;;;;;;;;4189282;28;20119;-52
2024/02/23 05:41:30;;;;;;;28.83;27.95;;;;;;;;;;4165768;28;20061;-53
2024/02/23 05:43:32;;;;;;;34.57;33.00;;;;;;;;;;4183490;28;20444;-52
2024/02/23 05:45:34;;;;;;;30.58;29.45;;;;;;;;;;4183187;28;20451;-52
2024/02/23 05:47:39;;;;;;;29.05;27.65;;;;;;;;;;4183302;28;20047;-53
2024/02/23 05:49:44;;;;;;;30.58;29.13;;;;;;;;;;4183147;28;20041;-52
2024/02/23 05:51:45;;;;;;;28.40;27.15;;;;;;;;;;4183536;28;20091;-50
2024/02/23 05:53:47;;;;;;;30.10;28.87;;;;;;;;;;4183255;28;20041;-52
2024/02/23 05:55:49;;;;;;;30.40;28.85;;;;;;;;;;4183378;28;20298;-52
2024/02/23 05:57:50;;;;;;;30.38;29.20;;;;;;;;;;4183201;28;20077;-53
2024/02/23 05:59:52;;;;;;;30.13;28.88;;;;;;;;;;4185697;28;20044;-52
2024/02/23 06:01:56;;;;;;;29.43;28.43;;;;;;;;;;4194953;28;20033;-54
2024/02/23 06:03:58;;;;;;;28.58;27.67;;;;;;;;;;4186921;28;20298;-53
2024/02/23 06:06:00;;;;;;;30.40;28.93;;;;;;;;;;4183230;28;20377;-51
2024/02/23 06:08:02;;;;;;;30.42;28.73;;;;;;;;;;4183139;28;20075;-53
2024/02/23 06:10:05;;;;;;;30.17;28.95;;;;;;;;;;4183066;28;20045;-53
2024/02/23 06:12:06;;;;;;;30.92;28.85;;;;;;;;;;4165231;28;20512;-52
2024/02/23 06:14:08;;;;;;;31.02;29.60;;;;;;;;;;4182970;28;20583;-53
2024/02/23 06:16:11;;;;;;;30.98;29.67;;;;;;;;;;4182698;28;20095;-53
2024/02/23 06:18:13;;;;;;;29.00;27.67;;;;;;;;;;4193956;28;20496;-52
2024/02/23 06:20:14;;;;;;;28.50;26.93;;;;;;;;;;4199490;28;20476;-62
2024/02/23 06:22:21;;;;;;;31.13;29.60;;;;;;;;;;4182689;28;20323;-61
2024/02/23 06:24:22;;;;;;;29.60;28.35;;;;;;;;;;4215114;28;20807;-62
2024/02/23 06:26:24;;;;;;;31.30;29.47;;;;;;;;;;4192411;28;20036;-62
2024/02/23 06:28:27;;;;;;;33.97;32.03;;;;;;;;;;4190423;28;20048;-62
2024/02/23 06:30:28;;;;;;;30.20;28.75;;;;;;;;;;4193445;28;20382;-62
2024/02/23 06:32:30;;;;;;;31.15;29.40;;;;;;;;;;4181660;28;20504;-62
2024/02/23 06:34:32;;;;;;;31.63;29.95;;;;;;;;;;4182726;28;20076;-61
2024/02/23 06:36:34;;;;;;;30.88;29.38;;;;;;;;;;4184007;28;20119;-61
2024/02/23 06:38:35;;;;;;;27.27;25.83;;;;;;;;;;4195096;28;20044;-62
2024/02/23 06:40:37;;;;;;;28.98;27.23;;;;;;;;;;4197707;28;20119;-62
2024/02/23 06:42:52;;;;;;;25.85;24.88;;;;;;;;;;4199199;28;20093;-61
2024/02/23 06:44:53;;;;;;;28.67;27.40;;;;;;;;;;4193598;28;20029;-62
2024/02/23 06:46:55;;;;;;;29.35;28.10;;;;;;;;;;4182615;28;20040;-61
2024/02/23 06:48:57;;;;;;;33.17;31.20;;;;;;;;;;4182932;28;20047;-61
2024/02/23 06:50:58;;;;;;;28.67;27.58;;;;;;;;;;4182660;28;20041;-61
2024/02/23 06:53:00;;;;;;;28.70;27.45;;;;;;;;;;4182617;28;20041;-61
2024/02/23 06:55:02;;;;;;;28.48;27.13;;;;;;;;;;4182443;28;20045;-61
2024/02/23 06:57:04;;;;;;;29.55;28.50;;;;;;;;;;4182244;28;20071;-62
2024/02/23 06:59:05;;;;;;;27.88;26.75;;;;;;;;;;4182298;28;20051;-61
2024/02/23 07:01:11;;;;;;;26.57;25.50;;;;;;;;;;4164730;28;20037;-61
2024/02/23 07:03:14;;;;;;;28.77;27.30;;;;;;;;;;4182136;28;20043;-62
2024/02/23 07:05:15;;;;;;;29.35;28.05;;;;;;;;;;4182147;28;20083;-61
2024/02/23 07:07:17;;;;;;;27.00;26.17;;;;;;;;;;4182129;28;20041;-61
2024/02/23 07:09:19;;;;;;;28.30;27.10;;;;;;;;;;4164343;28;20052;-61
2024/02/23 07:11:20;;;;;;;29.60;28.02;;;;;;;;;;4182068;28;20041;-61
2024/02/23 07:13:22;;;;;;;29.17;27.60;;;;;;;;;;4181987;28;20044;-61
2024/02/23 07:15:24;;;;;;;30.25;28.80;;;;;;;;;;4182040;28;20043;-61
2024/02/23 07:17:26;;;;;;;29.30;28.02;;;;;;;;;;4181989;28;20045;-61
2024/02/23 07:19:28;;;;;;;29.80;28.10;;;;;;;;;;4194742;28;20078;-61
2024/02/23 07:21:29;;;;;;;30.63;29.23;;;;;;;;;;4215208;28;20048;-62
2024/02/23 07:23:31;;;;;;;29.63;27.75;;;;;;;;;;4215128;28;20081;-61
2024/02/23 07:25:33;;;;;;;27.90;26.88;;;;;;;;;;4215222;28;20040;-62
2024/02/23 07:27:35;;;;;;;30.55;29.10;;;;;;;;;;4215221;28;20042;-61
2024/02/23 07:29:37;;;;;;;29.02;27.77;;;;;;;;;;4215339;28;20105;-62
2024/02/23 07:31:39;;;;;;;31.30;29.02;;;;;;;;;;4215198;28;20411;-62
2024/02/23 07:33:42;;;;;;;29.75;28.08;;;;;;;;;;4215207;28;20499;-62
2024/02/23 07:35:44;;;;;;;28.35;26.83;;;;;;;;;;4215197;28;20054;-63
2024/02/23 07:37:46;;;;;;;29.57;27.73;;;;;;;;;;4215107;28;20499;-62
2024/02/23 07:39:50;;;;;;;28.58;27.33;;;;;;;;;;4215687;28;20292;-62
2024/02/23 07:41:52;;;;;;;30.58;29.05;;;;;;;;;;4192029;28;20078;-62
2024/02/23 07:43:53;;;;;;;28.52;27.33;;;;;;;;;;4181234;28;20489;-63
2024/02/23 07:45:55;;;;;;;28.30;27.17;;;;;;;;;;4181535;28;20064;-62
2024/02/23 07:47:56;;;;;;;28.13;26.50;;;;;;;;;;4181722;28;20087;-63
2024/02/23 07:49:59;;;;;;;27.42;25.88;;;;;;;;;;4181882;28;20059;-63
2024/02/23 07:52:01;;;;;;;27.75;26.80;;;;;;;;;;4181861;28;20079;-61
2024/02/23 07:54:03;;;;;;;28.17;26.67;;;;;;;;;;4163786;28;20061;-62
2024/02/23 07:56:07;;;;;;;27.80;26.42;;;;;;;;;;4163747;28;20045;-63
2024/02/23 07:58:09;;;;;;;27.88;26.00;;;;;;;;;;4181443;28;20044;-62
2024/02/23 08:00:10;;;;;;;27.92;26.58;;;;;;;;;;4181371;28;20828;-61
2024/02/23 08:02:12;;;;;;;28.75;27.20;;;;;;;;;;4181570;28;20091;-62
2024/02/23 08:04:14;;;;;;;28.35;26.92;;;;;;;;;;4181234;28;20128;-61
2024/02/23 08:06:15;;;;;;;26.60;25.20;;;;;;;;;;4181462;28;20041;-63
2024/02/23 08:08:17;;;;;;;26.43;25.23;;;;;;;;;;4163650;28;20312;-62
2024/02/23 08:10:19;;;;;;;29.58;27.95;;;;;;;;;;4181202;28;20056;-61
2024/02/23 08:12:20;;;;;;;28.05;26.58;;;;;;;;;;4163454;28;20037;-61
2024/02/23 08:14:22;;;;;;;29.92;27.83;;;;;;;;;;4182042;28;20060;-62
2024/02/23 08:16:24;;;;;;;27.47;26.13;;;;;;;;;;4205238;28;20119;-61
2024/02/23 08:18:26;;;;;;;30.13;28.30;;;;;;;;;;4195796;28;20518;-62
2024/02/23 08:20:28;;;;;;;27.42;26.23;;;;;;;;;;4213925;28;20058;-62
2024/02/23 08:22:31;;;;;;;28.23;26.98;;;;;;;;;;4214167;28;20131;-63
2024/02/23 08:24:33;;;;;;;31.45;29.13;;;;;;;;;;4178770;28;20091;-62
2024/02/23 08:26:37;;;;;;;29.67;27.77;;;;;;;;;;4214693;28;20036;-61
2024/02/23 08:28:39;;;;;;;28.90;27.48;;;;;;;;;;4214576;28;20055;-61
2024/02/23 08:30:41;;;;;;;31.97;30.10;;;;;;;;;;4196581;28;20074;-61
2024/02/23 08:32:42;;;;;;;27.95;26.67;;;;;;;;;;4214552;28;20590;-64
2024/02/23 08:34:44;;;;;;;30.58;28.92;;;;;;;;;;4214292;28;20091;-62
2024/02/23 08:36:46;;;;;;;30.07;28.30;;;;;;;;;;4214052;28;20047;-62
2024/02/23 08:38:48;;;;;;;28.60;27.17;;;;;;;;;;4163262;28;20394;-67
2024/02/23 08:40:50;;;;;;;31.73;29.52;;;;;;;;;;4180825;28;20421;-66
2024/02/23 08:42:52;;;;;;;30.75;28.75;;;;;;;;;;4180906;28;20500;-68
2024/02/23 08:44:54;;;;;;;30.63;28.73;;;;;;;;;;4180620;28;20041;-68
2024/02/23 08:46:56;;;;;;;;;;;;;;;;;;4181141;28;20390;-68
2024/02/23 08:48:57;;;;;;;30.45;29.13;;;;;;;;;;4180854;28;19921;-69
2024/02/23 08:50:59;;;;;;;30.08;28.05;;;;;;;;;;4180636;28;20049;-70
2024/02/23 08:53:02;;;;;;;33.28;31.33;;;;;;;;;;4180665;28;20073;-67
2024/02/23 08:55:04;;;;;;;27.42;26.05;;;;;;;;;;4180081;28;20528;-68
2024/02/23 08:57:05;;;;;;;28.93;27.37;;;;;;;;;;4180770;28;20131;-67
2024/02/23 08:59:07;;;;;;;29.13;27.83;;;;;;;;;;4180615;28;20114;-68
2024/02/23 09:01:09;;;;;;;29.90;28.07;;;;;;;;;;4180633;28;20048;-70
2024/02/23 09:03:11;;;;;;;28.50;27.20;;;;;;;;;;4180181;28;20045;-69
2024/02/23 09:05:12;;;;;;;29.10;27.50;;;;;;;;;;4180801;28;20048;-68
2024/02/23 09:07:14;;;;;;;32.85;30.85;;;;;;;;;;4180679;28;20507;-68
2024/02/23 09:09:16;;;;;;;29.02;27.38;;;;;;;;;;4180534;28;20052;-68
2024/02/23 09:11:18;;;;;;;32.30;30.23;;;;;;;;;;4182417;28;20060;-69
2024/02/23 09:13:20;;;;;;;31.77;29.55;;;;;;;;;;4213798;28;20102;-68
2024/02/23 09:15:21;;;;;;;30.08;28.02;;;;;;;;;;4213732;28;20097;-69
2024/02/23 09:17:23;;;;;;;33.58;30.67;;;;;;;;;;4213739;28;20047;-68
2024/02/23 09:19:25;;;;;;;28.85;27.35;;;;;;;;;;4213639;28;20037;-68
2024/02/23 09:21:26;;;;;;;35.93;32.77;;;;;;;;;;4213874;28;20036;-68
2024/02/23 09:23:28;;;;;;;33.25;30.83;;;;;;;;;;4213634;28;20290;-69
2024/02/23 09:25:30;;;;;;;32.25;30.17;;;;;;;;;;4213618;28;20089;-70
2024/02/23 09:27:32;;;;;;;40.80;36.92;;;;;;;;;;4213988;28;20063;-69
2024/02/23 09:29:34;;;;;;;29.95;28.13;;;;;;;;;;4213886;28;20054;-68
2024/02/23 09:31:35;;;;;;;32.47;30.13;;;;;;;;;;4195861;28;20500;-70
2024/02/23 09:33:37;;;;;;;30.67;28.77;;;;;;;;;;4203275;28;20087;-69
2024/02/23 09:35:39;;;;;;;30.25;28.17;;;;;;;;;;4180212;28;20049;-68
2024/02/23 09:37:41;;;;;;;28.98;27.15;;;;;;;;;;4180483;28;20044;-69
2024/02/23 09:39:43;;;;;;;33.45;30.58;;;;;;;;;;4180256;28;20037;-68
2024/02/23 09:41:44;;;;;;;28.83;26.97;;;;;;;;;;4180339;28;20051;-68
2024/02/23 09:43:46;;;;;;;29.02;27.38;;;;;;;;;;4180544;28;20678;-69
2024/02/23 09:45:51;;;;;;;28.80;27.10;;;;;;;;;;4180433;28;20033;-70
2024/02/23 09:47:53;;;;;;;30.33;28.58;;;;;;;;;;4180321;28;20041;-69
2024/02/23 09:49:55;;;;;;;29.45;27.83;;;;;;;;;;4180855;28;20052;-69
2024/02/23 09:51:57;;;;;;;32.05;29.73;;;;;;;;;;4180228;28;20041;-69
2024/02/23 09:53:59;;;;;;;29.95;28.25;;;;;;;;;;4180172;28;20041;-69
2024/02/23 09:56:01;;;;;;;31.10;28.97;;;;;;;;;;4180242;28;20041;-68
2024/02/23 09:58:03;;;;;;;29.60;28.00;;;;;;;;;;4180242;28;20767;-69
2024/02/23 10:00:07;;;;;;;30.60;28.58;;;;;;;;;;4180116;28;20037;-68
2024/02/23 10:02:12;;;;;;;31.58;29.38;;;;;;;;;;4180165;28;20044;-68
2024/02/23 10:04:14;;;;;;;29.33;27.48;;;;;;;;;;4162089;28;20052;-67
2024/02/23 10:06:16;;;;;;;28.90;27.20;;;;;;;;;;4180873;28;20443;-69
2024/02/23 10:08:18;;;;;;;30.92;28.85;;;;;;;;;;4197469;28;20046;-67
2024/02/23 10:10:35;;;;;;;31.83;29.40;;;;;;;;;;4216404;28;20517;-68
2024/02/23 10:12:40;;;;;;;29.33;27.42;;;;;;;;;;4204257;28;20711;-68
2024/02/23 10:14:42;;;;;;;29.85;28.05;;;;;;;;;;4199514;28;20037;-68
2024/02/23 10:16:44;;;;;;;32.63;29.73;;;;;;;;;;4199724;28;20041;-68
2024/02/23 10:18:46;;;;;;;31.60;30.10;;;;;;;;;;4199319;28;20045;-69
2024/02/23 10:20:50;;;;;;;29.83;28.10;;;;;;;;;;4199385;28;20400;-70
2024/02/23 10:22:53;;;;;;;29.63;27.67;;;;;;;;;;4199430;28;20055;-69
2024/02/23 10:24:55;;;;;;;30.27;28.50;;;;;;;;;;4199542;28;20396;-70
2024/02/23 10:26:57;;;;;;;31.67;29.58;;;;;;;;;;4199287;28;20044;-69
2024/02/23 10:28:58;;;;;;;33.70;31.37;;;;;;;;;;4199437;28;20045;-70
2024/02/23 10:31:01;;;;;;;30.90;28.80;;;;;;;;;;4184607;28;20279;-69
2024/02/23 10:33:02;;;;;;;;;;;;;;;;;;4183203;28;20512;-70
2024/02/23 10:35:08;;;;;;;30.80;28.75;;;;;;;;;;4182927;28;19921;-69
2024/02/23 10:37:10;;;;;;;29.33;26.58;;;;;;;;;;4182629;28;20046;-70
2024/02/23 10:39:15;;;;;;;30.23;27.87;;;;;;;;;;4182601;28;20091;-69
2024/02/23 10:41:17;;;;;;;31.35;29.15;;;;;;;;;;4182662;28;20039;-69
2024/02/23 10:43:22;;;;;;;30.40;27.92;;;;;;;;;;4182718;28;20041;-69
2024/02/23 10:45:24;;;;;;;31.00;28.52;;;;;;;;;;4182255;28;20048;-70
2024/02/23 10:47:26;;;;;;;29.75;26.65;;;;;;;;;;4170330;28;20033;-68
2024/02/23 10:49:28;;;;;;;31.25;28.77;;;;;;;;;;4183526;28;20373;-71
2024/02/23 10:51:30;;;;;;;29.40;26.92;;;;;;;;;;4182403;28;20080;-69
2024/02/23 10:53:32;;;;;;;32.63;29.63;;;;;;;;;;4164744;28;20045;-71
2024/02/23 10:55:35;;;;;;;30.45;28.13;;;;;;;;;;4182467;28;20102;-70
2024/02/23 10:57:38;;;;;;;29.92;27.88;;;;;;;;;;4189631;28;20044;-69
2024/02/23 10:59:41;;;;;;;29.55;27.45;;;;;;;;;;4187441;28;20040;-71
2024/02/23 11:01:42;;;;;;;28.40;26.27;;;;;;;;;;4199021;28;20036;-62
2024/02/23 11:03:47;;;;;;;28.80;26.38;;;;;;;;;;4193636;28;20041;-62
2024/02/23 11:05:49;;;;;;;28.27;26.33;;;;;;;;;;4215954;28;20036;-61
2024/02/23 11:07:51;;;;;;;29.55;26.65;;;;;;;;;;4215487;28;20040;-62
2024/02/23 11:09:53;;;;;;;27.15;25.25;;;;;;;;;;4206633;28;20044;-62
2024/02/23 11:11:56;;;;;;;26.88;25.00;;;;;;;;;;4193921;28;20044;-62
2024/02/23 11:14:03;;;;;;;28.92;26.67;;;;;;;;;;4184779;28;20241;-62
2024/02/23 11:16:05;;;;;;;28.05;25.75;;;;;;;;;;4186757;28;20029;-62
2024/02/23 11:18:08;;;;;;;;;;;;;;;;;;4198440;28;20052;-62
2024/02/23 11:20:14;;;;;;;26.77;25.05;;;;;;;;;;4197187;28;20372;-62
2024/02/23 11:22:34;;;;;;;27.95;25.83;;;;;;;;;;4189859;28;20127;-63
2024/02/23 11:24:46;;;;;;;28.75;26.48;;;;;;;;;;4198521;28;20089;-63
2024/02/23 11:26:49;;;;;;;26.40;24.85;;;;;;;;;;4185963;28;20441;-62
2024/02/23 11:28:53;;;;;;;26.52;24.40;;;;;;;;;;4193056;28;20041;-62
2024/02/23 11:30:55;;;;;;;26.88;25.02;;;;;;;;;;4185371;28;20069;-62
2024/02/23 11:32:59;;;;;;;27.45;24.83;;;;;;;;;;4196426;28;20416;-62
2024/02/23 11:35:01;;;;;;;26.30;24.40;;;;;;;;;;4180552;28;20132;-62
2024/02/23 11:37:10;;;;;;;26.63;24.55;;;;;;;;;;4198218;28;20068;-61
2024/02/23 11:39:13;;;;;;;27.98;25.30;;;;;;;;;;4198245;28;20052;-62
2024/02/23 11:41:15;;;;;;;28.00;26.42;;;;;;;;;;4188650;28;20041;-62
2024/02/23 11:43:16;;;;;;;27.58;25.58;;;;;;;;;;4192620;28;20067;-62
2024/02/23 11:45:18;;;;;;;29.10;26.37;;;;;;;;;;4163902;28;20041;-63
2024/02/23 11:47:20;;;;;;;26.92;24.92;;;;;;;;;;4164071;28;20292;-62
2024/02/23 11:49:26;;;;;;;26.63;24.83;;;;;;;;;;4185902;28;20039;-62
2024/02/23 11:51:30;;;;;;;28.67;26.30;;;;;;;;;;4186319;28;20349;-63
2024/02/23 11:53:32;;;;;;;26.58;24.83;;;;;;;;;;4191875;28;20044;-62